sensor_id;sensor_type;location;lat;lon;timestamp;P1;durP1;ratioP1;P2;durP2;ratioP2
20611;SDS011;10465;42.686;23.364;2022-11-15T00:00:21;117.30;;;64.15;;
20611;SDS011;10465;42.686;23.364;2022-11-15T00:02:47;126.97;;;66.50;;
20611;SDS011;10465;42.686;23.364;2022-11-15T00:05:12;125.63;;;66.63;;
20611;SDS011;10465;42.686;23.364;2022-11-15T00:07:38;108.07;;;57.72;;
20611;SDS011;10465;42.686;23.364;2022-11-15T00:10:03;93.22;;;51.65;;
20611;SDS011;10465;42.686;23.364;2022-11-15T00:12:29;94.35;;;49.25;;
20611;SDS011;10465;42.686;23.364;2022-11-15T00:14:55;85.45;;;48.92;;
20611;SDS011;10465;42.686;23.364;2022-11-15T00:17:20;93.63;;;48.97;;
20611;SDS011;10465;42.686;23.364;2022-11-15T00:19:46;85.18;;;48.35;;
20611;SDS011;10465;42.686;23.364;2022-11-15T00:22:11;84.82;;;46.95;;
20611;SDS011;10465;42.686;23.364;2022-11-15T00:24:37;88.03;;;47.50;;
20611;SDS011;10465;42.686;23.364;2022-11-15T00:27:02;86.40;;;48.35;;
20611;SDS011;10465;42.686;23.364;2022-11-15T00:29:28;82.82;;;46.33;;
20611;SDS011;10465;42.686;23.364;2022-11-15T00:31:53;89.53;;;47.63;;
20611;SDS011;10465;42.686;23.364;2022-11-15T00:34:19;84.47;;;44.30;;
20611;SDS011;10465;42.686;23.364;2022-11-15T00:36:44;80.85;;;45.53;;
20611;SDS011;10465;42.686;23.364;2022-11-15T00:39:10;81.78;;;45.85;;
20611;SDS011;10465;42.686;23.364;2022-11-15T00:41:35;85.28;;;45.00;;
20611;SDS011;10465;42.686;23.364;2022-11-15T00:44:01;83.18;;;45.10;;
20611;SDS011;10465;42.686;23.364;2022-11-15T00:46:26;88.22;;;45.75;;
20611;SDS011;10465;42.686;23.364;2022-11-15T00:48:52;77.05;;;43.63;;
20611;SDS011;10465;42.686;23.364;2022-11-15T00:51:17;80.10;;;44.75;;
20611;SDS011;10465;42.686;23.364;2022-11-15T00:53:43;79.53;;;45.70;;
20611;SDS011;10465;42.686;23.364;2022-11-15T00:56:08;80.78;;;46.10;;
20611;SDS011;10465;42.686;23.364;2022-11-15T00:58:34;80.10;;;43.92;;
20611;SDS011;10465;42.686;23.364;2022-11-15T01:01:09;82.53;;;44.63;;
20611;SDS011;10465;42.686;23.364;2022-11-15T01:03:37;74.28;;;42.72;;
20611;SDS011;10465;42.686;23.364;2022-11-15T01:06:04;81.35;;;44.95;;
20611;SDS011;10465;42.686;23.364;2022-11-15T01:08:30;81.55;;;44.78;;
20611;SDS011;10465;42.686;23.364;2022-11-15T01:11:02;73.65;;;43.78;;
20611;SDS011;10465;42.686;23.364;2022-11-15T01:13:30;75.13;;;43.28;;
20611;SDS011;10465;42.686;23.364;2022-11-15T01:16:05;78.60;;;45.00;;
20611;SDS011;10465;42.686;23.364;2022-11-15T01:18:31;78.85;;;45.83;;
20611;SDS011;10465;42.686;23.364;2022-11-15T01:20:57;79.63;;;45.80;;
20611;SDS011;10465;42.686;23.364;2022-11-15T01:23:22;82.05;;;46.30;;
20611;SDS011;10465;42.686;23.364;2022-11-15T01:25:48;85.22;;;48.03;;
20611;SDS011;10465;42.686;23.364;2022-11-15T01:28:13;83.45;;;45.00;;
20611;SDS011;10465;42.686;23.364;2022-11-15T01:30:39;81.75;;;43.70;;
20611;SDS011;10465;42.686;23.364;2022-11-15T01:33:04;77.38;;;42.58;;
20611;SDS011;10465;42.686;23.364;2022-11-15T01:35:55;79.63;;;43.20;;
20611;SDS011;10465;42.686;23.364;2022-11-15T01:38:22;73.50;;;42.25;;
20611;SDS011;10465;42.686;23.364;2022-11-15T01:40:48;75.65;;;41.38;;
20611;SDS011;10465;42.686;23.364;2022-11-15T01:43:24;78.38;;;42.35;;
20611;SDS011;10465;42.686;23.364;2022-11-15T01:45:56;72.20;;;41.20;;
20611;SDS011;10465;42.686;23.364;2022-11-15T01:48:31;70.15;;;40.05;;
20611;SDS011;10465;42.686;23.364;2022-11-15T01:51:02;75.70;;;41.65;;
20611;SDS011;10465;42.686;23.364;2022-11-15T01:53:33;71.53;;;39.47;;
20611;SDS011;10465;42.686;23.364;2022-11-15T01:56:02;73.53;;;41.53;;
20611;SDS011;10465;42.686;23.364;2022-11-15T01:58:30;77.47;;;43.97;;
20611;SDS011;10465;42.686;23.364;2022-11-15T02:00:56;84.35;;;46.85;;
20611;SDS011;10465;42.686;23.364;2022-11-15T02:03:22;85.97;;;48.40;;
20611;SDS011;10465;42.686;23.364;2022-11-15T02:05:56;98.40;;;55.60;;
20611;SDS011;10465;42.686;23.364;2022-11-15T02:08:22;99.75;;;55.90;;
20611;SDS011;10465;42.686;23.364;2022-11-15T02:10:48;97.07;;;52.97;;
20611;SDS011;10465;42.686;23.364;2022-11-15T02:13:14;99.82;;;55.80;;
20611;SDS011;10465;42.686;23.364;2022-11-15T02:18:37;108.70;;;58.00;;
20611;SDS011;10465;42.686;23.364;2022-11-15T02:29:39;117.70;;;62.78;;
20611;SDS011;10465;42.686;23.364;2022-11-15T02:32:35;114.25;;;61.92;;
20611;SDS011;10465;42.686;23.364;2022-11-15T02:37:58;119.45;;;65.68;;
20611;SDS011;10465;42.686;23.364;2022-11-15T02:40:36;141.95;;;74.40;;
20611;SDS011;10465;42.686;23.364;2022-11-15T02:43:11;140.52;;;78.25;;
20611;SDS011;10465;42.686;23.364;2022-11-15T02:46:05;144.98;;;77.30;;
20611;SDS011;10465;42.686;23.364;2022-11-15T02:49:14;143.73;;;77.72;;
20611;SDS011;10465;42.686;23.364;2022-11-15T02:51:41;149.82;;;83.10;;
20611;SDS011;10465;42.686;23.364;2022-11-15T02:54:14;153.63;;;83.43;;
20611;SDS011;10465;42.686;23.364;2022-11-15T02:56:43;149.13;;;80.57;;
20611;SDS011;10465;42.686;23.364;2022-11-15T03:04:58;121.57;;;59.00;;
20611;SDS011;10465;42.686;23.364;2022-11-15T03:07:29;110.65;;;54.78;;
20611;SDS011;10465;42.686;23.364;2022-11-15T03:10:08;109.85;;;54.22;;
20611;SDS011;10465;42.686;23.364;2022-11-15T03:16:04;126.88;;;61.10;;
20611;SDS011;10465;42.686;23.364;2022-11-15T03:18:52;139.35;;;64.07;;
20611;SDS011;10465;42.686;23.364;2022-11-15T03:21:22;135.27;;;65.13;;
20611;SDS011;10465;42.686;23.364;2022-11-15T03:23:50;131.90;;;61.90;;
20611;SDS011;10465;42.686;23.364;2022-11-15T03:26:17;129.00;;;62.17;;
20611;SDS011;10465;42.686;23.364;2022-11-15T03:28:57;124.63;;;62.08;;
20611;SDS011;10465;42.686;23.364;2022-11-15T03:31:26;123.63;;;58.95;;
20611;SDS011;10465;42.686;23.364;2022-11-15T03:34:15;116.38;;;54.78;;
20611;SDS011;10465;42.686;23.364;2022-11-15T03:36:48;111.55;;;54.20;;
20611;SDS011;10465;42.686;23.364;2022-11-15T03:39:16;115.95;;;54.50;;
20611;SDS011;10465;42.686;23.364;2022-11-15T03:41:48;120.93;;;57.85;;
20611;SDS011;10465;42.686;23.364;2022-11-15T03:44:40;122.20;;;55.33;;
20611;SDS011;10465;42.686;23.364;2022-11-15T03:49:50;115.68;;;52.95;;
20611;SDS011;10465;42.686;23.364;2022-11-15T03:52:18;96.85;;;48.40;;
20611;SDS011;10465;42.686;23.364;2022-11-15T03:54:52;98.82;;;51.03;;
20611;SDS011;10465;42.686;23.364;2022-11-15T03:57:19;103.65;;;50.60;;
20611;SDS011;10465;42.686;23.364;2022-11-15T03:59:45;99.03;;;49.22;;
20611;SDS011;10465;42.686;23.364;2022-11-15T04:02:11;96.82;;;48.25;;
20611;SDS011;10465;42.686;23.364;2022-11-15T04:04:36;97.00;;;49.00;;
20611;SDS011;10465;42.686;23.364;2022-11-15T04:07:02;98.13;;;48.47;;
20611;SDS011;10465;42.686;23.364;2022-11-15T04:09:27;98.45;;;50.08;;
20611;SDS011;10465;42.686;23.364;2022-11-15T04:11:53;93.80;;;47.65;;
20611;SDS011;10465;42.686;23.364;2022-11-15T04:14:18;94.00;;;48.03;;
20611;SDS011;10465;42.686;23.364;2022-11-15T04:16:44;93.97;;;46.33;;
20611;SDS011;10465;42.686;23.364;2022-11-15T04:19:09;85.43;;;45.03;;
20611;SDS011;10465;42.686;23.364;2022-11-15T04:21:53;80.97;;;42.58;;
20611;SDS011;10465;42.686;23.364;2022-11-15T04:24:37;75.32;;;41.90;;
20611;SDS011;10465;42.686;23.364;2022-11-15T04:27:03;79.03;;;41.95;;
20611;SDS011;10465;42.686;23.364;2022-11-15T04:29:28;69.97;;;39.10;;
20611;SDS011;10465;42.686;23.364;2022-11-15T04:32:02;73.55;;;39.95;;
20611;SDS011;10465;42.686;23.364;2022-11-15T04:34:29;67.88;;;38.95;;
20611;SDS011;10465;42.686;23.364;2022-11-15T04:36:55;66.30;;;39.50;;
20611;SDS011;10465;42.686;23.364;2022-11-15T04:39:40;67.40;;;38.38;;
20611;SDS011;10465;42.686;23.364;2022-11-15T04:42:06;68.35;;;39.03;;
20611;SDS011;10465;42.686;23.364;2022-11-15T04:44:31;63.67;;;37.28;;
20611;SDS011;10465;42.686;23.364;2022-11-15T04:46:57;60.50;;;35.45;;
20611;SDS011;10465;42.686;23.364;2022-11-15T04:49:23;55.33;;;34.58;;
20611;SDS011;10465;42.686;23.364;2022-11-15T04:51:48;65.30;;;36.72;;
20611;SDS011;10465;42.686;23.364;2022-11-15T04:54:14;57.30;;;35.55;;
20611;SDS011;10465;42.686;23.364;2022-11-15T04:56:39;59.95;;;34.63;;
20611;SDS011;10465;42.686;23.364;2022-11-15T04:59:05;62.70;;;34.30;;
20611;SDS011;10465;42.686;23.364;2022-11-15T05:01:30;53.50;;;32.83;;
20611;SDS011;10465;42.686;23.364;2022-11-15T05:03:56;61.63;;;33.75;;
20611;SDS011;10465;42.686;23.364;2022-11-15T05:06:40;63.67;;;34.17;;
20611;SDS011;10465;42.686;23.364;2022-11-15T05:09:05;62.35;;;33.03;;
20611;SDS011;10465;42.686;23.364;2022-11-15T05:11:31;57.95;;;31.27;;
20611;SDS011;10465;42.686;23.364;2022-11-15T05:13:56;58.35;;;30.40;;
20611;SDS011;10465;42.686;23.364;2022-11-15T05:16:22;58.17;;;28.70;;
20611;SDS011;10465;42.686;23.364;2022-11-15T05:18:50;60.20;;;31.10;;
20611;SDS011;10465;42.686;23.364;2022-11-15T05:21:16;53.25;;;27.50;;
20611;SDS011;10465;42.686;23.364;2022-11-15T05:23:42;58.13;;;28.05;;
20611;SDS011;10465;42.686;23.364;2022-11-15T05:26:08;48.30;;;26.13;;
20611;SDS011;10465;42.686;23.364;2022-11-15T05:28:34;53.30;;;27.73;;
20611;SDS011;10465;42.686;23.364;2022-11-15T05:31:11;50.28;;;24.70;;
20611;SDS011;10465;42.686;23.364;2022-11-15T05:33:41;55.65;;;26.25;;
20611;SDS011;10465;42.686;23.364;2022-11-15T05:39:04;50.40;;;26.35;;
20611;SDS011;10465;42.686;23.364;2022-11-15T05:41:35;49.65;;;25.25;;
20611;SDS011;10465;42.686;23.364;2022-11-15T05:44:05;55.25;;;26.52;;
20611;SDS011;10465;42.686;23.364;2022-11-15T05:46:34;59.20;;;31.30;;
20611;SDS011;10465;42.686;23.364;2022-11-15T05:49:02;77.22;;;38.38;;
20611;SDS011;10465;42.686;23.364;2022-11-15T05:51:29;81.65;;;40.63;;
20611;SDS011;10465;42.686;23.364;2022-11-15T05:53:55;74.80;;;38.60;;
20611;SDS011;10465;42.686;23.364;2022-11-15T05:56:23;72.70;;;36.85;;
20611;SDS011;10465;42.686;23.364;2022-11-15T05:58:49;75.00;;;38.40;;
20611;SDS011;10465;42.686;23.364;2022-11-15T06:01:17;76.40;;;37.28;;
20611;SDS011;10465;42.686;23.364;2022-11-15T06:03:43;68.82;;;35.53;;
20611;SDS011;10465;42.686;23.364;2022-11-15T06:06:08;65.57;;;33.47;;
20611;SDS011;10465;42.686;23.364;2022-11-15T06:08:34;71.28;;;32.03;;
20611;SDS011;10465;42.686;23.364;2022-11-15T06:11:03;63.13;;;31.52;;
20611;SDS011;10465;42.686;23.364;2022-11-15T06:13:30;58.85;;;31.48;;
20611;SDS011;10465;42.686;23.364;2022-11-15T06:15:56;54.65;;;28.23;;
20611;SDS011;10465;42.686;23.364;2022-11-15T06:18:21;48.72;;;24.60;;
20611;SDS011;10465;42.686;23.364;2022-11-15T06:20:47;46.80;;;22.77;;
20611;SDS011;10465;42.686;23.364;2022-11-15T06:23:12;46.80;;;22.27;;
20611;SDS011;10465;42.686;23.364;2022-11-15T06:25:38;44.40;;;22.30;;
20611;SDS011;10465;42.686;23.364;2022-11-15T06:28:03;42.90;;;22.27;;
20611;SDS011;10465;42.686;23.364;2022-11-15T06:30:29;43.33;;;22.77;;
20611;SDS011;10465;42.686;23.364;2022-11-15T06:33:04;46.40;;;23.17;;
20611;SDS011;10465;42.686;23.364;2022-11-15T06:35:30;51.85;;;25.20;;
20611;SDS011;10465;42.686;23.364;2022-11-15T06:38:06;54.80;;;25.73;;
20611;SDS011;10465;42.686;23.364;2022-11-15T06:40:34;42.30;;;22.80;;
20611;SDS011;10465;42.686;23.364;2022-11-15T06:43:00;42.42;;;21.88;;
20611;SDS011;10465;42.686;23.364;2022-11-15T06:45:26;43.33;;;20.55;;
20611;SDS011;10465;42.686;23.364;2022-11-15T06:47:52;43.88;;;21.08;;
20611;SDS011;10465;42.686;23.364;2022-11-15T06:50:17;43.65;;;21.02;;
20611;SDS011;10465;42.686;23.364;2022-11-15T06:52:43;45.90;;;23.42;;
20611;SDS011;10465;42.686;23.364;2022-11-15T06:55:08;43.65;;;22.55;;
20611;SDS011;10465;42.686;23.364;2022-11-15T06:57:34;48.92;;;25.90;;
20611;SDS011;10465;42.686;23.364;2022-11-15T07:00:00;50.13;;;24.48;;
20611;SDS011;10465;42.686;23.364;2022-11-15T07:02:27;41.75;;;21.67;;
20611;SDS011;10465;42.686;23.364;2022-11-15T07:04:52;39.42;;;21.13;;
20611;SDS011;10465;42.686;23.364;2022-11-15T07:07:18;48.85;;;25.65;;
20611;SDS011;10465;42.686;23.364;2022-11-15T07:09:43;43.22;;;22.63;;
20611;SDS011;10465;42.686;23.364;2022-11-15T07:12:08;53.42;;;23.45;;
20611;SDS011;10465;42.686;23.364;2022-11-15T07:14:34;48.05;;;22.77;;
20611;SDS011;10465;42.686;23.364;2022-11-15T07:16:59;48.20;;;24.17;;
20611;SDS011;10465;42.686;23.364;2022-11-15T07:19:25;50.38;;;23.00;;
20611;SDS011;10465;42.686;23.364;2022-11-15T07:21:50;45.60;;;23.95;;
20611;SDS011;10465;42.686;23.364;2022-11-15T07:24:16;47.22;;;23.52;;
20611;SDS011;10465;42.686;23.364;2022-11-15T07:26:41;49.92;;;24.10;;
20611;SDS011;10465;42.686;23.364;2022-11-15T07:29:06;46.30;;;22.65;;
20611;SDS011;10465;42.686;23.364;2022-11-15T07:31:32;53.13;;;26.73;;
20611;SDS011;10465;42.686;23.364;2022-11-15T07:33:57;67.72;;;30.40;;
20611;SDS011;10465;42.686;23.364;2022-11-15T07:36:23;62.78;;;30.50;;
20611;SDS011;10465;42.686;23.364;2022-11-15T07:38:48;57.42;;;27.77;;
20611;SDS011;10465;42.686;23.364;2022-11-15T07:41:14;56.92;;;26.92;;
20611;SDS011;10465;42.686;23.364;2022-11-15T07:43:39;54.38;;;26.17;;
20611;SDS011;10465;42.686;23.364;2022-11-15T07:46:06;61.08;;;28.88;;
20611;SDS011;10465;42.686;23.364;2022-11-15T07:48:34;62.50;;;30.33;;
20611;SDS011;10465;42.686;23.364;2022-11-15T07:51:05;57.42;;;28.55;;
20611;SDS011;10465;42.686;23.364;2022-11-15T07:53:31;52.92;;;27.70;;
20611;SDS011;10465;42.686;23.364;2022-11-15T07:55:56;58.28;;;28.65;;
20611;SDS011;10465;42.686;23.364;2022-11-15T07:58:22;55.05;;;28.67;;
20611;SDS011;10465;42.686;23.364;2022-11-15T08:00:47;62.10;;;30.75;;
20611;SDS011;10465;42.686;23.364;2022-11-15T08:03:14;63.95;;;31.67;;
20611;SDS011;10465;42.686;23.364;2022-11-15T08:05:41;62.08;;;31.25;;
20611;SDS011;10465;42.686;23.364;2022-11-15T08:08:08;61.50;;;29.33;;
20611;SDS011;10465;42.686;23.364;2022-11-15T08:10:35;60.35;;;31.23;;
20611;SDS011;10465;42.686;23.364;2022-11-15T08:13:03;62.42;;;31.77;;
20611;SDS011;10465;42.686;23.364;2022-11-15T08:15:30;63.45;;;31.20;;
20611;SDS011;10465;42.686;23.364;2022-11-15T08:17:57;65.05;;;31.10;;
20611;SDS011;10465;42.686;23.364;2022-11-15T08:20:24;61.97;;;32.22;;
20611;SDS011;10465;42.686;23.364;2022-11-15T08:22:51;63.80;;;31.40;;
20611;SDS011;10465;42.686;23.364;2022-11-15T08:25:17;61.88;;;31.25;;
20611;SDS011;10465;42.686;23.364;2022-11-15T08:27:43;58.65;;;30.80;;
20611;SDS011;10465;42.686;23.364;2022-11-15T08:30:09;60.58;;;32.17;;
20611;SDS011;10465;42.686;23.364;2022-11-15T08:32:36;66.20;;;32.33;;
20611;SDS011;10465;42.686;23.364;2022-11-15T08:35:01;68.53;;;32.95;;
20611;SDS011;10465;42.686;23.364;2022-11-15T08:37:27;65.88;;;31.63;;
20611;SDS011;10465;42.686;23.364;2022-11-15T08:39:52;66.47;;;31.92;;
20611;SDS011;10465;42.686;23.364;2022-11-15T08:42:18;66.43;;;32.20;;
20611;SDS011;10465;42.686;23.364;2022-11-15T08:44:43;67.65;;;34.22;;
20611;SDS011;10465;42.686;23.364;2022-11-15T08:47:12;69.32;;;34.47;;
20611;SDS011;10465;42.686;23.364;2022-11-15T08:49:38;70.75;;;33.40;;
20611;SDS011;10465;42.686;23.364;2022-11-15T08:52:04;67.88;;;34.75;;
20611;SDS011;10465;42.686;23.364;2022-11-15T08:54:30;71.25;;;35.40;;
20611;SDS011;10465;42.686;23.364;2022-11-15T08:56:56;71.78;;;35.17;;
20611;SDS011;10465;42.686;23.364;2022-11-15T08:59:21;70.72;;;36.60;;
20611;SDS011;10465;42.686;23.364;2022-11-15T09:01:47;70.68;;;36.08;;
20611;SDS011;10465;42.686;23.364;2022-11-15T09:04:13;81.85;;;38.78;;
20611;SDS011;10465;42.686;23.364;2022-11-15T09:06:38;70.75;;;36.92;;
20611;SDS011;10465;42.686;23.364;2022-11-15T09:09:04;84.75;;;39.08;;
20611;SDS011;10465;42.686;23.364;2022-11-15T09:11:29;77.60;;;39.50;;
20611;SDS011;10465;42.686;23.364;2022-11-15T09:13:55;82.78;;;40.65;;
20611;SDS011;10465;42.686;23.364;2022-11-15T09:16:20;79.82;;;39.28;;
20611;SDS011;10465;42.686;23.364;2022-11-15T09:18:46;81.72;;;39.53;;
20611;SDS011;10465;42.686;23.364;2022-11-15T09:21:11;83.05;;;41.22;;
20611;SDS011;10465;42.686;23.364;2022-11-15T09:23:37;92.65;;;44.05;;
20611;SDS011;10465;42.686;23.364;2022-11-15T09:26:03;88.13;;;43.03;;
20611;SDS011;10465;42.686;23.364;2022-11-15T09:28:30;94.97;;;45.08;;
20611;SDS011;10465;42.686;23.364;2022-11-15T09:30:56;90.25;;;44.08;;
20611;SDS011;10465;42.686;23.364;2022-11-15T09:33:23;104.75;;;47.08;;
20611;SDS011;10465;42.686;23.364;2022-11-15T09:35:49;100.90;;;48.25;;
20611;SDS011;10465;42.686;23.364;2022-11-15T09:38:16;100.57;;;48.10;;
20611;SDS011;10465;42.686;23.364;2022-11-15T09:40:42;111.25;;;49.92;;
20611;SDS011;10465;42.686;23.364;2022-11-15T09:50:49;93.15;;;45.38;;
20611;SDS011;10465;42.686;23.364;2022-11-15T09:56:26;103.45;;;47.05;;
20611;SDS011;10465;42.686;23.364;2022-11-15T10:04:19;96.97;;;46.53;;
20611;SDS011;10465;42.686;23.364;2022-11-15T10:06:55;90.93;;;46.10;;
20611;SDS011;10465;42.686;23.364;2022-11-15T10:09:44;93.15;;;44.65;;
20611;SDS011;10465;42.686;23.364;2022-11-15T10:12:34;98.95;;;47.15;;
20611;SDS011;10465;42.686;23.364;2022-11-15T10:15:01;102.53;;;46.65;;
20611;SDS011;10465;42.686;23.364;2022-11-15T10:20:21;86.97;;;44.50;;
20611;SDS011;10465;42.686;23.364;2022-11-15T10:23:00;101.95;;;50.03;;
20611;SDS011;10465;42.686;23.364;2022-11-15T10:25:31;85.22;;;46.13;;
20611;SDS011;10465;42.686;23.364;2022-11-15T10:30:29;89.68;;;46.10;;
20611;SDS011;10465;42.686;23.364;2022-11-15T10:33:01;79.65;;;46.67;;
20611;SDS011;10465;42.686;23.364;2022-11-15T10:35:37;81.85;;;45.38;;
20611;SDS011;10465;42.686;23.364;2022-11-15T10:38:06;101.13;;;51.78;;
20611;SDS011;10465;42.686;23.364;2022-11-15T10:40:35;100.57;;;54.35;;
20611;SDS011;10465;42.686;23.364;2022-11-15T10:43:19;94.32;;;51.70;;
20611;SDS011;10465;42.686;23.364;2022-11-15T10:45:45;103.40;;;54.70;;
20611;SDS011;10465;42.686;23.364;2022-11-15T10:50:37;84.25;;;49.03;;
20611;SDS011;10465;42.686;23.364;2022-11-15T10:53:49;92.25;;;50.90;;
20611;SDS011;10465;42.686;23.364;2022-11-15T10:56:07;79.32;;;44.80;;
20611;SDS011;10465;42.686;23.364;2022-11-15T10:58:43;80.70;;;46.67;;
20611;SDS011;10465;42.686;23.364;2022-11-15T11:01:16;74.43;;;42.58;;
20611;SDS011;10465;42.686;23.364;2022-11-15T11:03:44;69.75;;;41.60;;
20611;SDS011;10465;42.686;23.364;2022-11-15T11:06:23;69.53;;;40.97;;
20611;SDS011;10465;42.686;23.364;2022-11-15T11:11:20;78.30;;;42.55;;
20611;SDS011;10465;42.686;23.364;2022-11-15T11:13:45;71.10;;;39.90;;
20611;SDS011;10465;42.686;23.364;2022-11-15T11:21:13;74.00;;;40.08;;
20611;SDS011;10465;42.686;23.364;2022-11-15T11:23:51;68.65;;;39.55;;
20611;SDS011;10465;42.686;23.364;2022-11-15T11:29:17;69.93;;;40.17;;
20611;SDS011;10465;42.686;23.364;2022-11-15T11:34:54;67.68;;;39.40;;
20611;SDS011;10465;42.686;23.364;2022-11-15T11:48:41;65.97;;;40.35;;
20611;SDS011;10465;42.686;23.364;2022-11-15T11:51:45;62.00;;;36.25;;
20611;SDS011;10465;42.686;23.364;2022-11-15T11:56:56;59.72;;;37.10;;
20611;SDS011;10465;42.686;23.364;2022-11-15T12:05:12;64.55;;;36.95;;
20611;SDS011;10465;42.686;23.364;2022-11-15T12:07:47;62.53;;;37.65;;
20611;SDS011;10465;42.686;23.364;2022-11-15T12:10:25;57.80;;;35.28;;
20611;SDS011;10465;42.686;23.364;2022-11-15T12:13:00;63.45;;;36.67;;
20611;SDS011;10465;42.686;23.364;2022-11-15T12:15:32;63.92;;;36.40;;
20611;SDS011;10465;42.686;23.364;2022-11-15T12:18:04;63.80;;;37.25;;
20611;SDS011;10465;42.686;23.364;2022-11-15T12:20:34;67.13;;;39.78;;
20611;SDS011;10465;42.686;23.364;2022-11-15T12:23:11;64.85;;;37.25;;
20611;SDS011;10465;42.686;23.364;2022-11-15T12:25:57;66.13;;;38.72;;
20611;SDS011;10465;42.686;23.364;2022-11-15T12:28:40;65.20;;;39.33;;
20611;SDS011;10465;42.686;23.364;2022-11-15T12:34:29;64.55;;;38.78;;
20611;SDS011;10465;42.686;23.364;2022-11-15T12:37:00;65.13;;;39.97;;
20611;SDS011;10465;42.686;23.364;2022-11-15T12:42:42;71.38;;;41.58;;
20611;SDS011;10465;42.686;23.364;2022-11-15T12:45:26;69.60;;;40.83;;
20611;SDS011;10465;42.686;23.364;2022-11-15T13:01:08;73.07;;;42.60;;
20611;SDS011;10465;42.686;23.364;2022-11-15T13:03:35;71.80;;;44.47;;
20611;SDS011;10465;42.686;23.364;2022-11-15T13:06:36;73.20;;;42.97;;
20611;SDS011;10465;42.686;23.364;2022-11-15T13:09:49;76.57;;;45.55;;
20611;SDS011;10465;42.686;23.364;2022-11-15T13:12:02;77.95;;;44.80;;
20611;SDS011;10465;42.686;23.364;2022-11-15T13:17:28;73.55;;;43.17;;
20611;SDS011;10465;42.686;23.364;2022-11-15T13:34:03;78.38;;;46.10;;
20611;SDS011;10465;42.686;23.364;2022-11-15T13:36:41;80.07;;;46.15;;
20611;SDS011;10465;42.686;23.364;2022-11-15T13:41:53;77.40;;;43.83;;
20611;SDS011;10465;42.686;23.364;2022-11-15T13:44:26;79.70;;;44.88;;
20611;SDS011;10465;42.686;23.364;2022-11-15T13:47:03;81.80;;;44.50;;
20611;SDS011;10465;42.686;23.364;2022-11-15T13:49:31;79.10;;;44.35;;
20611;SDS011;10465;42.686;23.364;2022-11-15T13:51:57;75.13;;;46.00;;
20611;SDS011;10465;42.686;23.364;2022-11-15T13:57:09;81.60;;;47.47;;
20611;SDS011;10465;42.686;23.364;2022-11-15T13:59:48;83.28;;;47.40;;
20611;SDS011;10465;42.686;23.364;2022-11-15T14:02:17;82.00;;;45.08;;
20611;SDS011;10465;42.686;23.364;2022-11-15T14:04:55;82.20;;;45.08;;
20611;SDS011;10465;42.686;23.364;2022-11-15T14:07:25;77.30;;;44.17;;
20611;SDS011;10465;42.686;23.364;2022-11-15T14:09:52;82.25;;;46.08;;
20611;SDS011;10465;42.686;23.364;2022-11-15T14:12:31;82.70;;;46.63;;
20611;SDS011;10465;42.686;23.364;2022-11-15T14:14:59;82.35;;;46.75;;
20611;SDS011;10465;42.686;23.364;2022-11-15T14:17:44;87.32;;;44.75;;
20611;SDS011;10465;42.686;23.364;2022-11-15T14:23:24;82.20;;;44.65;;
20611;SDS011;10465;42.686;23.364;2022-11-15T14:25:54;75.05;;;43.00;;
20611;SDS011;10465;42.686;23.364;2022-11-15T14:30:50;72.00;;;42.92;;
20611;SDS011;10465;42.686;23.364;2022-11-15T14:33:38;77.97;;;43.78;;
20611;SDS011;10465;42.686;23.364;2022-11-15T14:36:11;75.40;;;43.83;;
20611;SDS011;10465;42.686;23.364;2022-11-15T14:38:38;85.28;;;43.70;;
20611;SDS011;10465;42.686;23.364;2022-11-15T14:41:04;81.07;;;45.60;;
20611;SDS011;10465;42.686;23.364;2022-11-15T14:43:31;76.03;;;44.10;;
20611;SDS011;10465;42.686;23.364;2022-11-15T14:45:56;73.32;;;42.55;;
20611;SDS011;10465;42.686;23.364;2022-11-15T14:48:22;86.03;;;46.10;;
20611;SDS011;10465;42.686;23.364;2022-11-15T14:50:47;87.10;;;48.92;;
20611;SDS011;10465;42.686;23.364;2022-11-15T14:53:14;87.63;;;49.60;;
20611;SDS011;10465;42.686;23.364;2022-11-15T14:55:41;82.80;;;47.88;;
20611;SDS011;10465;42.686;23.364;2022-11-15T14:58:06;93.95;;;50.50;;
20611;SDS011;10465;42.686;23.364;2022-11-15T15:00:35;89.68;;;51.10;;
20611;SDS011;10465;42.686;23.364;2022-11-15T15:03:02;91.20;;;49.50;;
20611;SDS011;10465;42.686;23.364;2022-11-15T15:05:41;98.13;;;52.20;;
20611;SDS011;10465;42.686;23.364;2022-11-15T15:08:08;103.72;;;53.08;;
20611;SDS011;10465;42.686;23.364;2022-11-15T15:10:35;91.07;;;50.88;;
20611;SDS011;10465;42.686;23.364;2022-11-15T15:13:03;90.70;;;49.00;;
20611;SDS011;10465;42.686;23.364;2022-11-15T15:15:31;86.18;;;48.38;;
20611;SDS011;10465;42.686;23.364;2022-11-15T15:18:01;82.88;;;47.55;;
20611;SDS011;10465;42.686;23.364;2022-11-15T15:20:29;86.13;;;48.60;;
20611;SDS011;10465;42.686;23.364;2022-11-15T15:22:55;85.75;;;47.90;;
20611;SDS011;10465;42.686;23.364;2022-11-15T15:25:33;80.70;;;46.58;;
20611;SDS011;10465;42.686;23.364;2022-11-15T15:28:01;84.45;;;45.88;;
20611;SDS011;10465;42.686;23.364;2022-11-15T15:30:28;89.07;;;47.33;;
20611;SDS011;10465;42.686;23.364;2022-11-15T15:32:55;85.60;;;45.08;;
20611;SDS011;10465;42.686;23.364;2022-11-15T15:35:21;79.88;;;43.55;;
20611;SDS011;10465;42.686;23.364;2022-11-15T15:37:47;80.55;;;45.88;;
20611;SDS011;10465;42.686;23.364;2022-11-15T15:40:16;82.07;;;46.10;;
20611;SDS011;10465;42.686;23.364;2022-11-15T15:42:43;84.38;;;44.60;;
20611;SDS011;10465;42.686;23.364;2022-11-15T15:45:09;77.70;;;44.65;;
20611;SDS011;10465;42.686;23.364;2022-11-15T15:47:35;85.68;;;46.10;;
20611;SDS011;10465;42.686;23.364;2022-11-15T15:50:00;82.38;;;44.78;;
20611;SDS011;10465;42.686;23.364;2022-11-15T15:52:26;87.82;;;46.15;;
20611;SDS011;10465;42.686;23.364;2022-11-15T15:54:52;89.15;;;49.38;;
20611;SDS011;10465;42.686;23.364;2022-11-15T15:57:17;84.07;;;47.25;;
20611;SDS011;10465;42.686;23.364;2022-11-15T15:59:43;88.57;;;47.92;;
20611;SDS011;10465;42.686;23.364;2022-11-15T16:02:12;91.85;;;51.33;;
20611;SDS011;10465;42.686;23.364;2022-11-15T16:04:38;94.85;;;57.92;;
20611;SDS011;10465;42.686;23.364;2022-11-15T16:07:04;120.38;;;65.82;;
20611;SDS011;10465;42.686;23.364;2022-11-15T16:09:30;127.97;;;70.30;;
20611;SDS011;10465;42.686;23.364;2022-11-15T16:12:14;117.53;;;64.53;;
20611;SDS011;10465;42.686;23.364;2022-11-15T16:14:41;126.95;;;68.82;;
20611;SDS011;10465;42.686;23.364;2022-11-15T16:17:15;121.50;;;65.15;;
20611;SDS011;10465;42.686;23.364;2022-11-15T16:19:43;113.20;;;61.50;;
20611;SDS011;10465;42.686;23.364;2022-11-15T16:22:09;110.38;;;62.50;;
20611;SDS011;10465;42.686;23.364;2022-11-15T16:24:34;106.72;;;60.05;;
20611;SDS011;10465;42.686;23.364;2022-11-15T16:27:00;110.38;;;62.17;;
20611;SDS011;10465;42.686;23.364;2022-11-15T16:29:25;110.55;;;60.25;;
20611;SDS011;10465;42.686;23.364;2022-11-15T16:31:51;113.30;;;61.58;;